Time;durP1;ratioP1;P1;durP2;ratioP2;P2;SDS_P1;SDS_P2;PMS_P1;PMS_P2;Temp;Humidity;BMP_temperature;BMP_pressure;BME280_temperature;BME280_humidity;BME280_pressure;Samples;Min_cycle;Max_cycle;Signal;HPM_P1;HPM_P2
2024/04/26 00:00:23;;;;;;;4.65;2.40;;;;;;;10.76;77.46;99768.78;5312487;27;20025;-77
2024/04/26 00:03:28;;;;;;;5.30;2.00;;;;;;;10.83;77.21;99764.50;5312074;27;20025;-78
2024/04/26 00:06:33;;;;;;;2.95;1.88;;;;;;;11.03;76.44;99765.22;5311965;27;20446;-77
2024/04/26 00:09:37;;;;;;;5.00;1.92;;;;;;;11.09;76.19;99761.91;5311948;27;20056;-78
2024/04/26 00:12:44;;;;;;;3.13;1.83;;;;;;;10.97;76.99;99769.34;5311899;27;20029;-78
2024/04/26 00:15:49;;;;;;;3.95;1.92;;;;;;;10.78;76.95;99769.47;5310879;27;20356;-77
2024/04/26 00:18:54;;;;;;;4.55;1.58;;;;;;;10.90;77.31;99764.72;5311722;27;20026;-79
2024/04/26 00:21:58;;;;;;;4.55;2.40;;;;;;;10.84;77.59;99762.63;5311799;27;20022;-77
2024/04/26 00:25:04;;;;;;;3.30;1.92;;;;;;;10.75;77.82;99767.06;5311811;27;20025;-78
2024/04/26 00:28:09;;;;;;;3.72;1.65;;;;;;;10.50;78.71;99759.72;5311788;27;20022;-77
2024/04/26 00:31:19;;;;;;;9.93;3.42;;;;;;;10.54;78.30;99763.81;5310526;27;20049;-77
2024/04/26 00:34:24;;;;;;;5.25;1.90;;;;;;;10.56;78.81;99760.97;5311712;26;20480;-77
2024/04/26 00:37:29;;;;;;;3.08;1.58;;;;;;;10.39;78.32;99767.97;5312238;27;20140;-74
2024/04/26 00:40:34;;;;;;;2.75;1.70;;;;;;;10.68;78.29;99770.50;5330228;27;20010;-77
2024/04/26 00:43:39;;;;;;;2.67;1.58;;;;;;;10.68;77.30;99770.50;5311571;27;20025;-79
2024/04/26 00:46:46;;;;;;;3.00;1.70;;;;;;;10.73;77.72;99766.38;5313704;27;20026;-78
2024/04/26 00:49:51;;;;;;;3.88;1.88;;;;;;;10.54;77.58;99773.69;5314406;26;20477;-79
2024/04/26 00:52:56;;;;;;;2.70;1.60;;;;;;;10.32;78.23;99765.00;5314598;27;20021;-80
2024/04/26 00:56:02;;;;;;;2.85;1.40;;;;;;;10.28;77.62;99769.00;5314915;27;20489;-77
2024/04/26 00:59:08;;;;;;;6.43;2.00;;;;;;;10.35;77.53;99766.56;5314557;27;20030;-77
2024/04/26 01:02:16;;;;;;;2.80;1.50;;;;;;;10.28;77.74;99766.31;5342640;26;20029;-77
2024/04/26 01:05:21;;;;;;;4.43;1.67;;;;;;;10.38;77.48;99763.59;5314483;27;20025;-77
2024/04/26 01:08:26;;;;;;;3.53;1.70;;;;;;;10.39;77.43;99770.66;5328963;26;20474;-78
2024/04/26 01:11:30;;;;;;;2.72;1.60;;;;;;;10.44;77.42;99773.75;5347615;26;20044;-77
2024/04/26 01:14:35;;;;;;;2.60;1.48;;;;;;;10.65;76.56;99766.28;5348860;26;20025;-78
2024/04/26 01:17:40;;;;;;;3.15;1.42;;;;;;;10.78;76.55;99768.63;5348652;26;20029;-77
2024/04/26 01:20:44;;;;;;;9.50;1.50;;;;;;;10.80;76.65;99767.47;5347470;26;20033;-78
2024/04/26 01:23:51;;;;;;;2.30;1.50;;;;;;;10.84;76.63;99760.78;5348837;26;20025;-78
2024/04/26 01:26:56;;;;;;;3.58;1.52;;;;;;;10.88;76.25;99764.88;5347421;26;20467;-80
2024/04/26 01:30:01;;;;;;;2.70;1.40;;;;;;;10.92;75.77;99763.56;5348660;26;20359;-77
2024/04/26 01:33:06;;;;;;;3.78;1.65;;;;;;;10.59;76.51;99764.19;5348992;26;20420;-78
2024/04/26 01:36:11;;;;;;;2.83;1.40;;;;;;;10.54;76.71;99761.13;5348666;26;20462;-78
2024/04/26 01:39:16;;;;;;;4.13;1.60;;;;;;;10.67;76.47;99771.47;5348451;26;20029;-77
2024/04/26 01:42:20;;;;;;;2.67;1.48;;;;;;;10.73;75.94;99766.38;5348624;26;20028;-78
2024/04/26 01:45:25;;;;;;;8.70;5.78;;;;;;;10.79;75.55;99764.94;5347450;26;20029;-78
2024/04/26 01:48:29;;;;;;;18.65;10.75;;;;;;;10.73;76.07;99762.84;5348485;26;20021;-77
2024/04/26 01:51:34;;;;;;;5.43;2.45;;;;;;;10.66;75.94;99759.94;5348089;26;20029;-80
2024/04/26 01:54:39;;;;;;;2.90;1.55;;;;;;;10.60;75.97;99763.19;5348184;26;20025;-79
2024/04/26 01:57:44;;;;;;;2.70;1.50;;;;;;;10.39;76.45;99768.78;5347372;26;20021;-79
2024/04/26 02:00:49;;;;;;;4.93;1.63;;;;;;;10.51;76.57;99771.28;5348411;26;20024;-80
2024/04/26 02:03:54;;;;;;;4.00;1.63;;;;;;;10.52;76.86;99763.09;5348457;26;20025;-80
2024/04/26 02:06:58;;;;;;;2.85;1.40;;;;;;;10.50;76.86;99770.44;5348327;26;20013;-78
2024/04/26 02:10:03;;;;;;;3.00;1.77;;;;;;;10.65;76.80;99770.78;5348428;26;20452;-79
2024/04/26 02:13:07;;;;;;;4.60;1.65;;;;;;;10.61;77.11;99772.94;5346897;26;20028;-80
2024/04/26 02:16:12;;;;;;;3.83;1.67;;;;;;;10.59;76.83;99774.91;5348037;26;20025;-76
2024/04/26 02:19:17;;;;;;;3.58;2.33;;;;;;;10.65;76.37;99779.69;5346605;26;20028;-76
2024/04/26 02:22:21;;;;;;;4.57;1.88;;;;;;;10.48;77.12;99769.75;5347925;26;20026;-77
2024/04/26 02:25:26;;;;;;;4.40;1.80;;;;;;;10.50;77.16;99780.31;5346659;26;20021;-77
2024/04/26 02:28:43;;;;;;;4.25;1.50;;;;;;;10.33;77.87;99777.44;5355000;26;20085;-77
2024/04/26 02:31:48;;;;;;;4.38;1.67;;;;;;;10.40;77.90;99773.19;5351521;26;20368;-78
2024/04/26 02:34:53;;;;;;;7.13;1.63;;;;;;;10.46;77.52;99774.44;5347621;26;20024;-75
2024/04/26 02:37:59;;;;;;;4.10;1.80;;;;;;;10.39;77.93;99784.88;5347809;26;20136;-79
2024/04/26 02:41:04;;;;;;;4.90;1.80;;;;;;;10.49;77.79;99784.88;5347571;26;20025;-77
2024/04/26 02:44:09;;;;;;;5.60;1.63;;;;;;;10.53;77.86;99778.22;5347382;26;20371;-76
2024/04/26 02:47:13;;;;;;;3.92;1.67;;;;;;;10.49;77.40;99776.81;5346073;26;20024;-75
2024/04/26 02:50:18;;;;;;;2.17;1.40;;;;;;;10.47;78.03;99784.16;5347243;26;20029;-77
2024/04/26 02:53:22;;;;;;;2.80;1.58;;;;;;;10.56;77.68;99790.47;5347157;26;20029;-77
2024/04/26 02:56:28;;;;;;;7.45;2.08;;;;;;;10.48;77.69;99788.53;5346101;26;20025;-76
2024/04/26 02:59:32;;;;;;;2.92;1.67;;;;;;;10.47;78.12;99794.06;5347324;26;20028;-78
2024/04/26 03:02:37;;;;;;;3.42;1.80;;;;;;;10.37;78.27;99796.75;5347021;26;20024;-77
2024/04/26 03:05:42;;;;;;;3.65;1.80;;;;;;;10.45;77.88;99799.56;5346901;26;20025;-77
2024/04/26 03:08:47;;;;;;;4.18;1.85;;;;;;;10.24;78.61;99789.06;5353554;26;20013;-76
2024/04/26 03:11:53;;;;;;;7.18;2.08;;;;;;;10.27;77.71;99790.59;5356754;26;20009;-77
2024/04/26 03:14:58;;;;;;;5.45;2.00;;;;;;;10.12;78.59;99792.88;5347277;26;20025;-77
2024/04/26 03:18:03;;;;;;;3.55;1.70;;;;;;;10.33;78.00;99795.38;5347301;26;20024;-78
2024/04/26 03:21:08;;;;;;;3.47;1.55;;;;;;;10.26;77.95;99791.59;5345779;26;20029;-78
2024/04/26 03:24:14;;;;;;;4.40;1.48;;;;;;;10.33;77.58;99787.31;5347012;26;20025;-79
2024/04/26 03:27:19;;;;;;;2.88;1.80;;;;;;;10.37;77.98;99788.72;5346958;26;20026;-78
2024/04/26 03:30:24;;;;;;;3.38;2.05;;;;;;;10.34;77.88;99787.16;5346707;26;20460;-79
2024/04/26 03:33:28;;;;;;;2.60;1.55;;;;;;;10.40;77.49;99783.06;5346860;26;20472;-77
2024/04/26 03:36:34;;;;;;;3.80;1.70;;;;;;;10.23;77.95;99779.31;5346573;26;20025;-78
2024/04/26 03:39:39;;;;;;;4.32;2.28;;;;;;;10.14;78.42;99779.34;5346671;26;20030;-78
2024/04/26 03:42:44;;;;;;;3.67;1.80;;;;;;;10.25;77.66;99776.47;5346666;26;20025;-79
2024/04/26 03:45:49;;;;;;;7.10;2.03;;;;;;;10.28;77.18;99779.72;5346554;26;20023;-80
2024/04/26 03:48:53;;;;;;;3.78;1.80;;;;;;;10.45;76.37;99791.50;5346848;26;20025;-78
2024/04/26 03:51:58;;;;;;;5.10;1.90;;;;;;;10.40;76.74;99793.78;5346640;26;20368;-79
2024/04/26 03:55:03;;;;;;;4.15;2.00;;;;;;;10.34;77.36;99791.72;5346571;26;20025;-79
2024/04/26 03:58:08;;;;;;;5.22;1.65;;;;;;;10.23;78.08;99791.88;5346579;26;20391;-80
2024/04/26 04:01:13;;;;;;;2.97;1.90;;;;;;;10.21;79.07;99794.72;5345382;26;20021;-77
2024/04/26 04:04:18;;;;;;;4.30;2.40;;;;;;;10.06;79.78;99792.59;5346437;26;20032;-77
2024/04/26 04:07:23;;;;;;;4.63;2.35;;;;;;;10.02;80.00;99791.22;5346323;26;20029;-79
2024/04/26 04:10:28;;;;;;;4.03;2.50;;;;;;;9.98;81.01;99795.16;5346294;26;20021;-77
2024/04/26 04:13:33;;;;;;;3.05;2.10;;;;;;;9.93;81.12;99792.91;5346432;26;20021;-79
2024/04/26 04:16:38;;;;;;;5.35;3.33;;;;;;;9.93;81.41;99795.59;5346424;26;20484;-79
2024/04/26 04:19:43;;;;;;;5.90;4.47;;;;;;;9.98;81.47;99797.81;5345653;26;20025;-78
2024/04/26 04:22:48;;;;;;;6.18;3.65;;;;;;;9.90;82.59;99805.78;5346762;26;20029;-78
2024/04/26 04:25:53;;;;;;;8.38;3.90;;;;;;;9.85;83.79;99810.72;5346299;26;20363;-78
2024/04/26 04:28:58;;;;;;;8.60;4.35;;;;;;;9.78;83.87;99813.94;5346333;26;20437;-79
2024/04/26 04:32:03;;;;;;;6.13;3.90;;;;;;;9.81;83.80;99821.72;5346179;26;20025;-79
2024/04/26 04:35:08;;;;;;;6.90;3.92;;;;;;;9.92;83.97;99811.81;5342921;26;20045;-78
2024/04/26 04:38:13;;;;;;;9.40;4.30;;;;;;;10.03;83.91;99822.38;5346029;26;20025;-79
2024/04/26 04:41:18;;;;;;;6.22;4.00;;;;;;;10.05;84.23;99828.47;5345969;26;20032;-77
2024/04/26 04:44:23;;;;;;;9.73;4.70;;;;;;;10.28;83.98;99825.31;5346100;26;20021;-78
2024/04/26 04:47:28;;;;;;;8.70;3.90;;;;;;;10.77;82.42;99828.66;5345789;26;20029;-76
2024/04/26 04:50:33;;;;;;;6.30;4.63;;;;;;;11.13;80.95;99831.28;5345725;26;20367;-77
2024/04/26 04:53:39;;;;;;;5.25;4.03;;;;;;;11.73;77.54;99826.19;5345953;26;20028;-80
2024/04/26 04:56:43;;;;;;;6.68;3.78;;;;;;;11.61;77.39;99825.56;5345815;26;20021;-79
2024/04/26 04:59:48;;;;;;;8.15;4.20;;;;;;;11.60;77.54;99826.53;5365519;26;20001;-75
2024/04/26 05:02:54;;;;;;;11.60;4.20;;;;;;;12.67;74.43;99832.56;5348024;26;20428;-79
2024/04/26 05:05:59;;;;;;;8.30;6.40;;;;;;;12.43;74.13;99833.28;5345651;26;20052;-79
2024/04/26 05:09:03;;;;;;;6.65;4.93;;;;;;;13.35;71.75;99834.22;5345362;26;20025;-77
2024/04/26 05:12:12;;;;;;;6.60;4.63;;;;;;;13.45;69.51;99842.16;5345628;26;20032;-81
2024/04/26 05:15:16;;;;;;;6.50;3.83;;;;;;;13.75;68.82;99841.53;5345135;26;20025;-78
2024/04/26 05:18:21;;;;;;;5.15;3.80;;;;;;;13.55;69.22;99849.06;5345286;26;20029;-80
2024/04/26 05:21:26;;;;;;;6.97;3.78;;;;;;;13.25;70.45;99849.69;5345064;26;20025;-80
2024/04/26 05:24:32;;;;;;;6.97;4.43;;;;;;;13.54;69.34;99847.41;5344777;26;20025;-80
2024/04/26 05:27:36;;;;;;;5.72;3.72;;;;;;;13.94;68.61;99843.03;5323204;26;20360;-78
2024/04/26 05:30:42;;;;;;;8.77;3.83;;;;;;;14.32;66.69;99845.06;5331267;26;20009;-79
2024/04/26 05:33:47;;;;;;;5.90;3.88;;;;;;;13.86;69.18;99846.59;5348414;26;20028;-81
2024/04/26 05:36:52;;;;;;;5.47;3.90;;;;;;;14.38;66.75;99852.50;5348478;26;20021;-80
2024/04/26 05:39:57;;;;;;;7.03;4.47;;;;;;;14.92;65.13;99859.78;5348280;26;20021;-79
2024/04/26 05:43:01;;;;;;;7.85;4.55;;;;;;;15.38;62.08;99862.63;5321575;26;20037;-71
2024/04/26 05:46:09;;;;;;;6.07;4.80;;;;;;;14.51;64.81;99876.28;5348994;26;20025;-73
2024/04/26 05:49:15;;;;;;;6.22;4.32;;;;;;;14.43;65.37;99869.03;5347485;26;20021;-73
2024/04/26 05:52:20;;;;;;;10.35;4.60;;;;;;;16.00;61.35;99871.53;5347241;26;20028;-72
2024/04/26 05:55:24;;;;;;;6.53;4.15;;;;;;;16.68;58.13;99872.31;5346935;26;20464;-73
2024/04/26 05:58:29;;;;;;;4.70;3.45;;;;;;;16.43;56.65;99880.81;5348600;26;20367;-76
2024/04/26 06:01:34;;;;;;;6.55;3.08;;;;;;;18.24;51.24;99881.75;5346438;26;20028;-76
2024/04/26 06:04:39;;;;;;;6.05;3.15;;;;;;;19.00;48.74;99889.03;5348542;26;20021;-75
2024/04/26 06:07:44;;;;;;;6.07;3.72;;;;;;;17.74;53.79;99883.53;5348738;26;20033;-74
2024/04/26 06:10:49;;;;;;;6.30;4.20;;;;;;;16.89;56.25;99890.53;5348893;26;20413;-76
2024/04/26 06:13:55;;;;;;;6.22;3.80;;;;;;;17.57;54.24;99883.97;5327751;26;20464;-74
2024/04/26 06:16:59;;;;;;;5.68;4.38;;;;;;;17.75;54.12;99887.09;5346585;26;20021;-78
2024/04/26 06:20:04;;;;;;;6.68;3.95;;;;;;;17.36;54.66;99890.97;5348144;26;20021;-77
2024/04/26 06:23:09;;;;;;;6.35;3.97;;;;;;;17.15;56.75;99899.06;5348345;26;20032;-79
2024/04/26 06:26:15;;;;;;;5.55;4.20;;;;;;;16.55;57.29;99893.78;5347885;26;20387;-80
2024/04/26 06:29:32;;;;;;;5.07;4.57;;;;;;;16.37;58.39;99889.69;5347685;26;20025;-76
2024/04/26 06:32:37;;;;;;;6.60;4.63;;;;;;;16.05;59.88;99896.19;5347550;26;20025;-78
2024/04/26 06:35:43;;;;;;;4.93;4.20;;;;;;;15.94;60.37;99897.47;5323191;26;20036;-81
2024/04/26 06:38:48;;;;;;;5.70;4.35;;;;;;;16.18;59.76;99899.16;5346111;26;20037;-80
2024/04/26 06:41:53;;;;;;;6.78;5.10;;;;;;;16.66;59.97;99901.47;5348053;26;20036;-80
2024/04/26 06:44:58;;;;;;;5.60;4.15;;;;;;;16.51;59.38;99907.84;5347138;26;20025;-79
2024/04/26 06:48:03;;;;;;;7.13;4.50;;;;;;;16.15;60.10;99904.91;5347136;26;20021;-79
2024/04/26 06:51:08;;;;;;;6.40;4.40;;;;;;;16.09;60.69;99914.63;5347516;26;20387;-79
2024/04/26 06:54:13;;;;;;;11.82;4.50;;;;;;;16.33;59.63;99910.03;5355774;26;19997;-77
2024/04/26 06:57:18;;;;;;;6.47;4.43;;;;;;;16.85;59.65;99917.19;5354493;26;20413;-79
2024/04/26 07:00:23;;;;;;;5.78;4.30;;;;;;;17.28;57.52;99918.19;5347521;26;20371;-79
2024/04/26 07:03:28;;;;;;;7.93;4.40;;;;;;;17.55;56.45;99917.53;5306811;26;20455;-79
2024/04/26 07:06:39;;;;;;;5.13;3.75;;;;;;;18.94;53.28;99923.31;5347391;26;20028;-75
2024/04/26 07:09:44;;;;;;;5.00;3.50;;;;;;;20.98;46.94;99922.91;5347691;26;20024;-78
2024/04/26 07:12:49;;;;;;;5.40;3.45;;;;;;;22.93;41.66;99924.91;5346522;26;20021;-78
2024/04/26 07:15:54;;;;;;;5.45;3.22;;;;;;;23.82;39.03;99927.94;5313414;27;20453;-77
2024/04/26 07:18:59;;;;;;;8.38;3.38;;;;;;;24.22;38.05;99930.16;5323162;26;20033;-79
2024/04/26 07:22:04;;;;;;;4.38;3.10;;;;;;;24.82;37.24;99929.00;5347433;26;20053;-83
2024/04/26 07:25:09;;;;;;;4.93;3.60;;;;;;;26.21;34.39;99930.72;5347157;26;20363;-78
2024/04/26 07:28:14;;;;;;;5.10;3.67;;;;;;;26.11;34.18;99936.88;5347488;26;20021;-78
2024/04/26 07:31:19;;;;;;;5.30;3.20;;;;;;;25.54;34.68;99937.84;5346275;26;20472;-77
2024/04/26 07:34:26;;;;;;;7.03;3.55;;;;;;;25.29;35.61;99942.72;5346217;26;20032;-76
2024/04/26 07:37:31;;;;;;;6.00;4.40;;;;;;;23.83;38.63;99951.50;5335387;26;20025;-74
2024/04/26 07:40:35;;;;;;;6.00;3.85;;;;;;;25.00;36.65;99941.78;5320661;26;20097;-75
2024/04/26 07:43:44;;;;;;;6.07;4.38;;;;;;;25.21;35.99;99946.69;5325462;26;20040;-75
2024/04/26 07:46:50;;;;;;;7.57;4.45;;;;;;;25.44;35.35;99954.06;5319678;26;20030;-74
2024/04/26 07:49:55;;;;;;;5.65;4.00;;;;;;;26.38;33.83;99951.69;5308406;27;20022;-75
2024/04/26 07:53:01;;;;;;;5.05;3.83;;;;;;;25.66;34.77;99958.75;5319498;26;20136;-75
2024/04/26 07:56:06;;;;;;;4.60;3.53;;;;;;;24.58;35.69;99962.94;5346939;26;20032;-73
2024/04/26 07:59:11;;;;;;;7.60;4.43;;;;;;;24.18;36.72;99959.09;5357848;26;20016;-74
2024/04/26 08:02:17;;;;;;;6.65;4.18;;;;;;;24.40;37.50;99963.00;5359681;26;20033;-78
2024/04/26 08:05:23;;;;;;;5.60;4.03;;;;;;;24.43;35.78;99963.38;5341224;26;20028;-78
2024/04/26 08:08:28;;;;;;;6.50;4.25;;;;;;;25.54;34.77;99968.91;5380911;26;20027;-79
2024/04/26 08:11:33;;;;;;;6.30;4.53;;;;;;;26.28;33.59;99956.16;5380557;26;20023;-78
2024/04/26 08:14:38;;;;;;;4.97;4.20;;;;;;;26.43;33.61;99964.72;5340651;26;20024;-79
2024/04/26 08:17:44;;;;;;;8.43;4.22;;;;;;;26.31;33.26;99970.28;5360046;26;20460;-79
2024/04/26 08:20:50;;;;;;;9.75;4.45;;;;;;;24.70;35.48;99961.06;5321664;26;20024;-78
2024/04/26 08:24:00;;;;;;;5.05;3.78;;;;;;;24.93;35.47;99974.88;5341123;26;20024;-78
2024/04/26 08:27:06;;;;;;;6.22;4.70;;;;;;;23.00;38.15;99974.09;5341205;26;20366;-79
2024/04/26 08:30:11;;;;;;;4.40;3.80;;;;;;;22.06;40.13;99974.09;5360782;26;20028;-78
2024/04/26 08:33:18;;;;;;;5.97;4.53;;;;;;;21.67;41.24;99977.81;5340476;26;20024;-79
2024/04/26 08:36:23;;;;;;;7.13;5.28;;;;;;;20.96;42.95;99974.09;5340701;26;20024;-82
2024/04/26 08:39:27;;;;;;;10.48;8.93;;;;;;;20.53;43.82;99981.88;5381387;26;20024;-78
2024/04/26 08:42:33;;;;;;;25.90;20.45;;;;;;;20.61;43.83;99978.97;5380073;26;20025;-78
2024/04/26 08:45:41;;;;;;;7.72;5.60;;;;;;;20.08;45.68;99979.84;5381231;26;20021;-78
2024/04/26 08:48:46;;;;;;;8.13;5.53;;;;;;;20.26;44.87;99973.84;5359844;26;20025;-75
2024/04/26 08:51:53;;;;;;;6.40;4.85;;;;;;;20.38;45.29;99983.94;5333541;26;20033;-76
2024/04/26 08:54:59;;;;;;;8.88;5.38;;;;;;;20.47;45.61;99979.13;5329673;26;20049;-78
2024/04/26 08:58:06;;;;;;;5.38;4.47;;;;;;;19.93;45.70;99979.16;5342756;26;20025;-77
2024/04/26 09:01:10;;;;;;;10.02;4.53;;;;;;;19.15;47.37;99979.56;5344595;26;20024;-80
2024/04/26 09:04:16;;;;;;;14.73;6.40;;;;;;;19.36;48.22;99987.63;5343753;26;20371;-84
2024/04/26 09:07:21;;;;;;;5.82;4.10;;;;;;;19.56;46.30;99985.06;5347609;26;20373;-83
2024/04/26 09:10:27;;;;;;;13.40;6.20;;;;;;;19.89;47.54;99981.47;5349198;26;20025;-82
2024/04/26 09:13:33;;;;;;;13.60;5.60;;;;;;;19.55;47.70;99986.13;5347629;26;20024;-83
2024/04/26 09:16:40;;;;;;;5.22;3.97;;;;;;;19.81;46.88;99984.34;5349204;26;20024;-80
2024/04/26 09:19:45;;;;;;;5.47;3.25;;;;;;;18.99;48.53;99980.69;5349004;26;20033;-79
2024/04/26 09:22:51;;;;;;;7.63;3.65;;;;;;;19.53;48.05;99990.94;5348718;26;20036;-79
2024/04/26 09:26:07;;;;;;;5.30;3.42;;;;;;;19.21;48.45;99982.31;5348850;26;20021;-79
2024/04/26 09:29:15;;;;;;;7.10;2.88;;;;;;;19.16;48.06;99978.53;5348735;26;20025;-78
2024/04/26 09:32:23;;;;;;;5.68;3.08;;;;;;;19.11;48.99;99979.09;5347585;26;20025;-78
2024/04/26 09:35:33;;;;;;;4.38;3.10;;;;;;;19.11;51.00;99989.16;5348867;26;20025;-79
2024/04/26 09:38:44;;;;;;;4.68;3.17;;;;;;;18.67;50.84;99976.66;5348727;26;20371;-77
2024/04/26 09:41:49;;;;;;;4.47;2.80;;;;;;;18.76;50.47;99977.38;5327713;26;20029;-78
2024/04/26 09:44:54;;;;;;;5.70;2.70;;;;;;;18.36;49.96;99981.56;5308590;26;20025;-79
2024/04/26 09:48:00;;;;;;;4.25;2.55;;;;;;;18.43;50.83;99973.47;5348521;26;20020;-79
2024/04/26 09:51:06;;;;;;;5.65;4.28;;;;;;;18.36;52.74;99967.97;5348306;26;20025;-78
2024/04/26 09:54:14;;;;;;;8.88;2.92;;;;;;;18.37;52.79;99953.34;5348336;26;20021;-77
2024/04/26 09:57:19;;;;;;;3.70;2.63;;;;;;;18.17;52.13;99955.03;5327635;26;20022;-79
2024/04/26 10:00:24;;;;;;;3.30;2.15;;;;;;;18.46;51.11;99957.66;5348378;26;20028;-78
2024/04/26 10:03:31;;;;;;;4.43;3.00;;;;;;;18.16;52.03;99956.91;5348313;26;20021;-77
2024/04/26 10:06:42;;;;;;;5.57;3.10;;;;;;;18.13;53.97;99942.88;5348492;26;20025;-78
2024/04/26 10:09:59;;;;;;;4.68;3.08;;;;;;;18.21;54.48;99937.31;5348576;26;20025;-77
2024/04/26 10:13:16;;;;;;;6.22;3.03;;;;;;;18.30;54.90;99935.28;5307819;26;20025;-77
2024/04/26 10:16:29;;;;;;;5.88;3.03;;;;;;;18.46;53.69;99935.91;5347990;26;20368;-77
2024/04/26 10:19:34;;;;;;;8.85;4.15;;;;;;;18.40;53.41;99939.38;5346929;26;20472;-76
2024/04/26 10:22:39;;;;;;;5.38;3.67;;;;;;;18.07;52.99;99936.31;5276599;27;20462;-77
2024/04/26 10:25:44;;;;;;;7.03;3.00;;;;;;;18.13;54.16;99943.72;5276505;27;20030;-79
2024/04/26 10:28:49;;;;;;;4.35;3.03;;;;;;;18.50;53.19;99942.63;5257177;27;20462;-77
2024/04/26 10:31:54;;;;;;;4.30;2.65;;;;;;;18.65;52.83;99946.13;5272564;27;20030;-75
2024/04/26 10:34:59;;;;;;;6.13;2.78;;;;;;;18.81;51.39;99942.28;5215000;27;20502;-74
2024/04/26 10:38:05;;;;;;;4.35;2.70;;;;;;;18.63;51.90;99940.03;5220727;27;20035;-76
2024/04/26 10:41:11;;;;;;;4.68;3.00;;;;;;;18.94;51.69;99941.50;5232616;27;20011;-73
2024/04/26 10:44:15;;;;;;;3.08;2.25;;;;;;;18.99;51.38;99937.16;5207889;27;20027;-74
2024/04/26 10:47:22;;;;;;;3.60;2.58;;;;;;;19.06;53.25;99939.94;5207258;27;20039;-77
2024/04/26 10:50:27;;;;;;;3.50;2.70;;;;;;;19.14;50.60;99927.00;5226348;27;20520;-74
2024/04/26 10:53:33;;;;;;;3.08;2.40;;;;;;;19.20;51.26;99926.22;5281388;27;20072;-74
2024/04/26 10:56:40;;;;;;;3.80;2.70;;;;;;;18.92;53.15;99924.56;5288264;27;20034;-78
2024/04/26 10:59:54;;;;;;;5.32;2.97;;;;;;;18.45;55.02;99912.44;5329579;26;20024;-78
2024/04/26 11:03:08;;;;;;;3.75;2.85;;;;;;;18.29;55.24;99920.88;5347483;26;20025;-77
2024/04/26 11:06:12;;;;;;;4.13;2.97;;;;;;;18.54;55.19;99922.16;5353227;26;20044;-77
2024/04/26 11:09:19;;;;;;;4.43;3.00;;;;;;;18.32;53.52;99916.94;5348138;26;20024;-74
2024/04/26 11:12:38;;;;;;;3.85;2.65;;;;;;;18.36;52.67;99919.06;5378977;26;20036;-79
2024/04/26 11:15:43;;;;;;;4.88;2.40;;;;;;;18.61;54.21;99912.22;5371678;26;20113;-78
2024/04/26 11:18:47;;;;;;;3.67;2.30;;;;;;;18.63;52.35;99915.56;5346003;26;20036;-76
2024/04/26 11:21:52;;;;;;;4.85;2.33;;;;;;;18.41;54.74;99919.31;5346438;26;20028;-77
2024/04/26 11:24:58;;;;;;;2.83;1.98;;;;;;;18.33;52.17;99903.16;5342759;26;20037;-76
2024/04/26 11:28:03;;;;;;;3.10;2.30;;;;;;;18.72;52.65;99905.38;5344224;26;20024;-78
2024/04/26 11:31:07;;;;;;;3.63;1.80;;;;;;;18.68;50.21;99904.94;5343711;26;20041;-76
2024/04/26 11:34:13;;;;;;;3.20;1.60;;;;;;;18.88;49.47;99901.53;5345220;26;20033;-78
2024/04/26 11:37:17;;;;;;;5.13;1.75;;;;;;;18.60;48.50;99896.09;5343508;26;20033;-78
2024/04/26 11:40:22;;;;;;;3.03;1.50;;;;;;;18.66;49.18;99898.88;5345998;26;20036;-75
2024/04/26 11:43:27;;;;;;;4.22;1.55;;;;;;;18.73;48.67;99888.03;5342452;26;20468;-76
2024/04/26 11:46:33;;;;;;;5.05;1.60;;;;;;;18.66;48.40;99892.59;5343700;26;20480;-76
2024/04/26 11:49:39;;;;;;;2.47;1.10;;;;;;;19.02;49.00;99897.84;5343803;26;20477;-77
2024/04/26 11:52:44;;;;;;;2.72;1.33;;;;;;;19.17;47.72;99899.41;5346114;26;20033;-77
2024/04/26 11:55:49;;;;;;;4.53;1.70;;;;;;;19.10;48.42;99894.97;5361436;26;20032;-78
2024/04/26 11:58:56;;;;;;;2.65;1.70;;;;;;;19.17;48.82;99902.13;5361315;26;20036;-74
2024/04/26 12:02:01;;;;;;;4.32;2.45;;;;;;;19.10;50.05;99911.28;5346497;26;20029;-74
2024/04/26 12:05:05;;;;;;;3.08;1.63;;;;;;;19.09;49.11;99901.44;5346991;26;20376;-77
2024/04/26 12:08:10;;;;;;;3.00;1.70;;;;;;;19.35;49.59;99910.63;5344478;26;20375;-75
2024/04/26 12:11:15;;;;;;;2.65;1.35;;;;;;;19.49;49.22;99916.97;5363155;26;20032;-76
2024/04/26 12:14:20;;;;;;;2.80;1.40;;;;;;;19.20;46.09;99919.94;5361747;26;20376;-74
2024/04/26 12:17:25;;;;;;;5.07;1.30;;;;;;;19.37;46.12;99913.16;5364335;26;20409;-73
2024/04/26 12:20:29;;;;;;;4.68;1.38;;;;;;;19.36;45.16;99916.88;5356811;26;20029;-76
2024/04/26 12:23:37;;;;;;;2.30;1.38;;;;;;;19.36;48.24;99912.31;5359538;26;20036;-73
2024/04/26 12:26:42;;;;;;;4.40;1.60;;;;;;;19.65;47.82;99910.34;5363093;26;20028;-75
2024/04/26 12:29:47;;;;;;;2.95;1.17;;;;;;;19.66;46.99;99918.31;5364403;26;20035;-75
2024/04/26 12:32:52;;;;;;;2.13;1.10;;;;;;;19.45;46.08;99915.72;5349022;26;20036;-74
2024/04/26 12:35:57;;;;;;;2.95;1.40;;;;;;;18.85;47.38;99919.06;5335072;26;20111;-75
2024/04/26 12:39:05;;;;;;;3.13;1.42;;;;;;;19.14;47.35;99929.72;5346042;26;20032;-77
2024/04/26 12:42:10;;;;;;;2.97;1.20;;;;;;;18.93;48.32;99921.66;5347080;26;20025;-76
2024/04/26 12:45:15;;;;;;;2.50;1.33;;;;;;;18.82;50.18;99923.03;5348450;26;20025;-77
2024/04/26 12:48:19;;;;;;;3.40;1.48;;;;;;;18.49;50.37;99919.19;5348640;26;20028;-78
2024/04/26 12:51:24;;;;;;;2.83;1.73;;;;;;;18.55;50.49;99921.16;5347707;26;20025;-78
2024/04/26 12:54:33;;;;;;;5.32;1.80;;;;;;;18.43;50.50;99927.28;5347788;26;20351;-79
2024/04/26 12:57:38;;;;;;;2.67;1.55;;;;;;;18.48;51.31;99914.81;5349031;26;20025;-79
2024/04/26 13:00:43;;;;;;;4.88;1.80;;;;;;;18.60;50.56;99917.84;5348859;26;20487;-79
2024/04/26 13:03:49;;;;;;;3.25;1.83;;;;;;;18.46;48.34;99932.31;5348728;26;20028;-78
2024/04/26 13:06:57;;;;;;;3.22;1.40;;;;;;;18.60;48.34;99917.84;5348841;26;20025;-79
2024/04/26 13:10:02;;;;;;;3.08;1.70;;;;;;;18.63;50.10;99934.59;5348814;26;20025;-79
2024/04/26 13:13:08;;;;;;;2.95;1.38;;;;;;;18.57;49.93;99905.47;5348851;26;20468;-77
2024/04/26 13:16:15;;;;;;;2.92;1.77;;;;;;;18.50;50.28;99918.19;5327955;26;20029;-74
2024/04/26 13:19:21;;;;;;;4.72;1.75;;;;;;;18.53;50.54;99908.78;5348750;26;20025;-73
2024/04/26 13:22:27;;;;;;;2.72;1.80;;;;;;;18.66;50.81;99901.59;5349068;26;20025;-74
2024/04/26 13:25:33;;;;;;;2.47;1.50;;;;;;;18.88;51.21;99915.13;5327613;26;20025;-75
2024/04/26 13:28:37;;;;;;;3.03;1.40;;;;;;;18.95;49.10;99916.00;5327231;26;20029;-74
2024/04/26 13:31:47;;;;;;;2.35;1.52;;;;;;;18.96;49.96;99915.78;5348606;26;20140;-74
2024/04/26 13:34:57;;;;;;;5.13;1.63;;;;;;;18.98;48.88;99915.59;5331617;26;20034;-78
2024/04/26 13:38:03;;;;;;;3.10;1.80;;;;;;;18.86;49.47;99903.59;5331274;26;20033;-73
2024/04/26 13:41:13;;;;;;;3.00;1.50;;;;;;;18.91;49.46;99901.97;5297939;27;20037;-75
2024/04/26 13:44:18;;;;;;;3.15;1.77;;;;;;;19.04;49.71;99895.75;5313584;27;20027;-75
2024/04/26 13:47:23;;;;;;;3.22;1.70;;;;;;;19.31;48.54;99892.97;5288443;26;20027;-73
2024/04/26 13:50:28;;;;;;;3.05;1.55;;;;;;;19.24;48.48;99891.28;5299917;26;20028;-74
2024/04/26 13:53:33;;;;;;;2.65;1.38;;;;;;;19.24;48.76;99896.72;5345452;26;20468;-74
2024/04/26 13:56:38;;;;;;;4.43;1.77;;;;;;;19.16;48.06;99902.34;5348024;26;20029;-74
2024/04/26 13:59:44;;;;;;;3.60;1.70;;;;;;;19.09;49.16;99901.44;5347930;26;20024;-73
2024/04/26 14:02:49;;;;;;;4.03;1.90;;;;;;;19.10;49.82;99901.25;5347823;26;20028;-74
2024/04/26 14:05:54;;;;;;;5.00;2.30;;;;;;;19.05;50.75;99895.56;5326476;26;20036;-73
2024/04/26 14:08:59;;;;;;;3.35;1.70;;;;;;;19.17;50.54;99904.00;5326998;26;20029;-75
2024/04/26 14:12:04;;;;;;;5.70;1.80;;;;;;;19.11;49.54;99902.09;5347621;26;20033;-73
2024/04/26 14:15:09;;;;;;;4.40;1.40;;;;;;;19.12;48.73;99898.31;5347578;26;20464;-73
2024/04/26 14:18:14;;;;;;;4.78;1.73;;;;;;;19.14;48.31;99898.97;5306880;26;20033;-77
2024/04/26 14:21:19;;;;;;;2.70;1.23;;;;;;;19.03;46.55;99888.66;5325061;26;20472;-75
2024/04/26 14:24:23;;;;;;;4.50;1.60;;;;;;;19.09;45.99;99887.84;5330541;26;20021;-74
2024/04/26 14:27:30;;;;;;;3.05;1.58;;;;;;;18.90;46.73;99900.28;5323280;26;20464;-75
2024/04/26 14:30:35;;;;;;;2.05;1.30;;;;;;;19.24;46.57;99896.72;5345474;26;20040;-75
2024/04/26 14:33:45;;;;;;;3.40;1.35;;;;;;;19.14;47.40;99897.09;5326707;26;20036;-75